sensor_id;sensor_type;location;lat;lon;timestamp;P1;durP1;ratioP1;P2;durP2;ratioP2
29044;SDS011;16133;49.486;12.176;2023-05-08T00:02:14;13.60;;;7.60;;
29044;SDS011;16133;49.486;12.176;2023-05-08T00:04:39;11.77;;;7.50;;
29044;SDS011;16133;49.486;12.176;2023-05-08T00:07:04;14.02;;;8.50;;
29044;SDS011;16133;49.486;12.176;2023-05-08T00:09:30;14.43;;;8.15;;
29044;SDS011;16133;49.486;12.176;2023-05-08T00:11:55;13.25;;;8.13;;
29044;SDS011;16133;49.486;12.176;2023-05-08T00:14:21;12.02;;;7.85;;
29044;SDS011;16133;49.486;12.176;2023-05-08T00:16:46;14.50;;;8.85;;
29044;SDS011;16133;49.486;12.176;2023-05-08T00:19:11;14.00;;;7.82;;
29044;SDS011;16133;49.486;12.176;2023-05-08T00:21:37;14.70;;;8.65;;
29044;SDS011;16133;49.486;12.176;2023-05-08T00:24:03;16.83;;;8.57;;
29044;SDS011;16133;49.486;12.176;2023-05-08T00:26:28;16.33;;;8.38;;
29044;SDS011;16133;49.486;12.176;2023-05-08T00:28:53;13.75;;;7.43;;
29044;SDS011;16133;49.486;12.176;2023-05-08T00:31:19;19.05;;;8.80;;
29044;SDS011;16133;49.486;12.176;2023-05-08T00:33:44;15.43;;;8.70;;
29044;SDS011;16133;49.486;12.176;2023-05-08T00:36:10;15.00;;;8.43;;
29044;SDS011;16133;49.486;12.176;2023-05-08T00:38:36;15.32;;;9.48;;
29044;SDS011;16133;49.486;12.176;2023-05-08T00:41:01;15.27;;;9.20;;
29044;SDS011;16133;49.486;12.176;2023-05-08T00:43:27;13.98;;;8.75;;
29044;SDS011;16133;49.486;12.176;2023-05-08T00:45:53;12.90;;;7.88;;
29044;SDS011;16133;49.486;12.176;2023-05-08T00:48:20;16.02;;;8.95;;
29044;SDS011;16133;49.486;12.176;2023-05-08T00:50:47;15.45;;;8.43;;
29044;SDS011;16133;49.486;12.176;2023-05-08T00:53:13;13.68;;;8.02;;
29044;SDS011;16133;49.486;12.176;2023-05-08T00:55:39;16.13;;;8.48;;
29044;SDS011;16133;49.486;12.176;2023-05-08T00:58:04;13.75;;;8.43;;
29044;SDS011;16133;49.486;12.176;2023-05-08T01:00:31;16.75;;;9.23;;
29044;SDS011;16133;49.486;12.176;2023-05-08T01:03:00;14.18;;;8.88;;
29044;SDS011;16133;49.486;12.176;2023-05-08T01:05:29;13.05;;;7.43;;
29044;SDS011;16133;49.486;12.176;2023-05-08T01:07:55;13.27;;;8.00;;
29044;SDS011;16133;49.486;12.176;2023-05-08T01:10:21;15.27;;;8.43;;
29044;SDS011;16133;49.486;12.176;2023-05-08T01:12:51;13.55;;;8.57;;
29044;SDS011;16133;49.486;12.176;2023-05-08T01:15:26;13.45;;;8.52;;
29044;SDS011;16133;49.486;12.176;2023-05-08T01:18:02;13.77;;;8.63;;
29044;SDS011;16133;49.486;12.176;2023-05-08T01:34:10;14.57;;;7.88;;
29044;SDS011;16133;49.486;12.176;2023-05-08T01:39:30;16.83;;;8.77;;
29044;SDS011;16133;49.486;12.176;2023-05-08T01:42:04;13.63;;;7.95;;
29044;SDS011;16133;49.486;12.176;2023-05-08T01:44:37;15.27;;;8.40;;
29044;SDS011;16133;49.486;12.176;2023-05-08T01:47:08;17.95;;;9.43;;
29044;SDS011;16133;49.486;12.176;2023-05-08T01:49:41;15.20;;;8.55;;
29044;SDS011;16133;49.486;12.176;2023-05-08T01:54:42;14.55;;;8.07;;
29044;SDS011;16133;49.486;12.176;2023-05-08T01:57:12;13.95;;;8.65;;
29044;SDS011;16133;49.486;12.176;2023-05-08T01:59:40;15.00;;;7.97;;
29044;SDS011;16133;49.486;12.176;2023-05-08T02:02:08;14.02;;;8.10;;
29044;SDS011;16133;49.486;12.176;2023-05-08T02:04:35;16.05;;;8.90;;
29044;SDS011;16133;49.486;12.176;2023-05-08T02:07:01;17.27;;;9.40;;
29044;SDS011;16133;49.486;12.176;2023-05-08T02:09:27;16.70;;;8.63;;
29044;SDS011;16133;49.486;12.176;2023-05-08T02:11:54;17.20;;;9.30;;
29044;SDS011;16133;49.486;12.176;2023-05-08T02:14:21;16.77;;;8.85;;
29044;SDS011;16133;49.486;12.176;2023-05-08T02:16:47;16.73;;;9.57;;
29044;SDS011;16133;49.486;12.176;2023-05-08T02:19:15;14.73;;;8.80;;
29044;SDS011;16133;49.486;12.176;2023-05-08T02:21:43;14.40;;;7.85;;
29044;SDS011;16133;49.486;12.176;2023-05-08T02:24:10;12.93;;;8.13;;
29044;SDS011;16133;49.486;12.176;2023-05-08T02:26:38;16.77;;;9.18;;
29044;SDS011;16133;49.486;12.176;2023-05-08T02:29:06;14.80;;;8.10;;
29044;SDS011;16133;49.486;12.176;2023-05-08T02:31:33;13.77;;;8.57;;
29044;SDS011;16133;49.486;12.176;2023-05-08T02:33:59;15.80;;;8.93;;
29044;SDS011;16133;49.486;12.176;2023-05-08T02:36:27;14.30;;;8.07;;
29044;SDS011;16133;49.486;12.176;2023-05-08T02:38:54;17.38;;;9.73;;
29044;SDS011;16133;49.486;12.176;2023-05-08T02:41:23;17.88;;;9.10;;
29044;SDS011;16133;49.486;12.176;2023-05-08T02:43:53;16.33;;;9.35;;
29044;SDS011;16133;49.486;12.176;2023-05-08T02:46:20;19.35;;;9.75;;
29044;SDS011;16133;49.486;12.176;2023-05-08T02:54:08;15.43;;;8.20;;
29044;SDS011;16133;49.486;12.176;2023-05-08T02:57:00;14.60;;;9.20;;
29044;SDS011;16133;49.486;12.176;2023-05-08T02:59:48;18.63;;;9.98;;
29044;SDS011;16133;49.486;12.176;2023-05-08T03:05:10;17.02;;;9.85;;
29044;SDS011;16133;49.486;12.176;2023-05-08T03:07:39;17.55;;;9.23;;
29044;SDS011;16133;49.486;12.176;2023-05-08T03:10:12;17.02;;;9.32;;
29044;SDS011;16133;49.486;12.176;2023-05-08T03:12:42;17.25;;;10.07;;
29044;SDS011;16133;49.486;12.176;2023-05-08T03:18:05;18.23;;;9.80;;
29044;SDS011;16133;49.486;12.176;2023-05-08T03:20:36;19.65;;;10.02;;
29044;SDS011;16133;49.486;12.176;2023-05-08T03:23:04;19.65;;;10.00;;
29044;SDS011;16133;49.486;12.176;2023-05-08T03:25:32;18.65;;;10.43;;
29044;SDS011;16133;49.486;12.176;2023-05-08T03:27:59;18.48;;;9.80;;
29044;SDS011;16133;49.486;12.176;2023-05-08T03:30:28;16.67;;;9.60;;
29044;SDS011;16133;49.486;12.176;2023-05-08T03:32:56;21.25;;;10.82;;
29044;SDS011;16133;49.486;12.176;2023-05-08T03:35:22;20.70;;;10.05;;
29044;SDS011;16133;49.486;12.176;2023-05-08T03:37:49;19.40;;;10.45;;
29044;SDS011;16133;49.486;12.176;2023-05-08T03:40:14;16.15;;;9.15;;
29044;SDS011;16133;49.486;12.176;2023-05-08T03:42:40;20.83;;;11.43;;
29044;SDS011;16133;49.486;12.176;2023-05-08T03:45:06;17.80;;;10.07;;
29044;SDS011;16133;49.486;12.176;2023-05-08T03:47:34;19.05;;;10.93;;
29044;SDS011;16133;49.486;12.176;2023-05-08T03:50:00;23.00;;;11.13;;
29044;SDS011;16133;49.486;12.176;2023-05-08T03:52:26;21.27;;;10.82;;
29044;SDS011;16133;49.486;12.176;2023-05-08T03:54:52;22.52;;;11.55;;
29044;SDS011;16133;49.486;12.176;2023-05-08T03:57:17;18.48;;;9.93;;
29044;SDS011;16133;49.486;12.176;2023-05-08T04:02:24;20.08;;;10.70;;
29044;SDS011;16133;49.486;12.176;2023-05-08T04:05:16;20.90;;;11.43;;
29044;SDS011;16133;49.486;12.176;2023-05-08T04:07:52;23.60;;;11.70;;
29044;SDS011;16133;49.486;12.176;2023-05-08T04:10:25;20.98;;;10.57;;
29044;SDS011;16133;49.486;12.176;2023-05-08T04:13:05;21.52;;;11.35;;
29044;SDS011;16133;49.486;12.176;2023-05-08T04:15:37;19.05;;;10.73;;
29044;SDS011;16133;49.486;12.176;2023-05-08T04:18:08;20.42;;;10.63;;
29044;SDS011;16133;49.486;12.176;2023-05-08T04:20:37;27.08;;;12.63;;
29044;SDS011;16133;49.486;12.176;2023-05-08T04:23:05;20.65;;;10.82;;
29044;SDS011;16133;49.486;12.176;2023-05-08T04:25:33;20.70;;;10.88;;
29044;SDS011;16133;49.486;12.176;2023-05-08T04:28:01;20.48;;;10.60;;
29044;SDS011;16133;49.486;12.176;2023-05-08T04:30:27;15.73;;;9.10;;
29044;SDS011;16133;49.486;12.176;2023-05-08T04:32:53;17.15;;;8.98;;
29044;SDS011;16133;49.486;12.176;2023-05-08T04:35:19;16.50;;;9.80;;
29044;SDS011;16133;49.486;12.176;2023-05-08T04:37:45;16.95;;;10.45;;
29044;SDS011;16133;49.486;12.176;2023-05-08T04:40:11;15.57;;;9.10;;
29044;SDS011;16133;49.486;12.176;2023-05-08T04:42:37;16.35;;;9.73;;
29044;SDS011;16133;49.486;12.176;2023-05-08T04:45:04;16.40;;;9.80;;
29044;SDS011;16133;49.486;12.176;2023-05-08T04:47:30;17.42;;;9.25;;
29044;SDS011;16133;49.486;12.176;2023-05-08T04:49:55;14.43;;;8.50;;
29044;SDS011;16133;49.486;12.176;2023-05-08T04:52:21;17.02;;;9.35;;
29044;SDS011;16133;49.486;12.176;2023-05-08T04:54:46;18.55;;;9.07;;
29044;SDS011;16133;49.486;12.176;2023-05-08T04:57:11;14.95;;;9.18;;
29044;SDS011;16133;49.486;12.176;2023-05-08T04:59:37;15.25;;;9.18;;
29044;SDS011;16133;49.486;12.176;2023-05-08T05:02:03;16.73;;;9.93;;
29044;SDS011;16133;49.486;12.176;2023-05-08T05:04:32;19.58;;;8.95;;
29044;SDS011;16133;49.486;12.176;2023-05-08T05:06:58;16.85;;;8.60;;
29044;SDS011;16133;49.486;12.176;2023-05-08T05:09:23;15.65;;;8.75;;
29044;SDS011;16133;49.486;12.176;2023-05-08T05:11:49;14.10;;;8.10;;
29044;SDS011;16133;49.486;12.176;2023-05-08T05:14:15;15.77;;;9.48;;
29044;SDS011;16133;49.486;12.176;2023-05-08T05:16:40;13.68;;;8.63;;
29044;SDS011;16133;49.486;12.176;2023-05-08T05:19:06;13.70;;;8.88;;
29044;SDS011;16133;49.486;12.176;2023-05-08T05:21:31;15.73;;;8.68;;
29044;SDS011;16133;49.486;12.176;2023-05-08T05:23:57;19.65;;;10.43;;
29044;SDS011;16133;49.486;12.176;2023-05-08T05:26:22;28.15;;;13.00;;
29044;SDS011;16133;49.486;12.176;2023-05-08T05:28:47;20.35;;;10.25;;
29044;SDS011;16133;49.486;12.176;2023-05-08T05:31:13;18.50;;;10.00;;
29044;SDS011;16133;49.486;12.176;2023-05-08T05:33:38;24.35;;;12.10;;
29044;SDS011;16133;49.486;12.176;2023-05-08T05:36:04;22.35;;;11.40;;
29044;SDS011;16133;49.486;12.176;2023-05-08T05:38:30;14.43;;;9.25;;
29044;SDS011;16133;49.486;12.176;2023-05-08T05:40:55;23.13;;;9.52;;
29044;SDS011;16133;49.486;12.176;2023-05-08T05:43:21;25.13;;;12.75;;
29044;SDS011;16133;49.486;12.176;2023-05-08T05:45:46;19.95;;;10.27;;
29044;SDS011;16133;49.486;12.176;2023-05-08T05:48:12;16.05;;;8.65;;
29044;SDS011;16133;49.486;12.176;2023-05-08T05:50:37;11.43;;;7.55;;
29044;SDS011;16133;49.486;12.176;2023-05-08T05:53:02;12.60;;;8.23;;
29044;SDS011;16133;49.486;12.176;2023-05-08T05:55:28;13.65;;;8.02;;
29044;SDS011;16133;49.486;12.176;2023-05-08T05:57:53;16.48;;;8.60;;
29044;SDS011;16133;49.486;12.176;2023-05-08T06:00:19;13.98;;;7.85;;
29044;SDS011;16133;49.486;12.176;2023-05-08T06:02:45;12.05;;;7.63;;
29044;SDS011;16133;49.486;12.176;2023-05-08T06:05:11;15.57;;;8.55;;
29044;SDS011;16133;49.486;12.176;2023-05-08T06:07:37;11.70;;;6.95;;
29044;SDS011;16133;49.486;12.176;2023-05-08T06:10:02;13.43;;;7.55;;
29044;SDS011;16133;49.486;12.176;2023-05-08T06:12:28;13.52;;;7.63;;
29044;SDS011;16133;49.486;12.176;2023-05-08T06:14:54;11.60;;;7.03;;
29044;SDS011;16133;49.486;12.176;2023-05-08T06:17:20;12.00;;;7.28;;
29044;SDS011;16133;49.486;12.176;2023-05-08T06:19:46;12.95;;;8.00;;
29044;SDS011;16133;49.486;12.176;2023-05-08T06:22:14;13.90;;;8.02;;
29044;SDS011;16133;49.486;12.176;2023-05-08T06:24:41;12.55;;;7.97;;
29044;SDS011;16133;49.486;12.176;2023-05-08T06:27:07;11.25;;;7.28;;
29044;SDS011;16133;49.486;12.176;2023-05-08T06:29:33;16.73;;;8.07;;
29044;SDS011;16133;49.486;12.176;2023-05-08T06:31:58;10.48;;;6.95;;
29044;SDS011;16133;49.486;12.176;2023-05-08T06:34:23;14.18;;;8.20;;
29044;SDS011;16133;49.486;12.176;2023-05-08T06:36:49;12.57;;;7.20;;
29044;SDS011;16133;49.486;12.176;2023-05-08T06:39:14;12.57;;;6.95;;
29044;SDS011;16133;49.486;12.176;2023-05-08T06:41:45;12.75;;;8.23;;
29044;SDS011;16133;49.486;12.176;2023-05-08T06:44:12;10.27;;;6.63;;
29044;SDS011;16133;49.486;12.176;2023-05-08T06:46:37;14.40;;;8.13;;
29044;SDS011;16133;49.486;12.176;2023-05-08T06:49:03;13.55;;;7.95;;
29044;SDS011;16133;49.486;12.176;2023-05-08T06:51:28;9.40;;;6.55;;
29044;SDS011;16133;49.486;12.176;2023-05-08T06:53:53;11.15;;;7.53;;
29044;SDS011;16133;49.486;12.176;2023-05-08T06:56:19;11.20;;;7.35;;
29044;SDS011;16133;49.486;12.176;2023-05-08T06:58:45;10.43;;;6.70;;
29044;SDS011;16133;49.486;12.176;2023-05-08T07:01:10;10.18;;;7.15;;
29044;SDS011;16133;49.486;12.176;2023-05-08T07:03:35;10.75;;;7.20;;
29044;SDS011;16133;49.486;12.176;2023-05-08T07:06:01;12.93;;;8.60;;
29044;SDS011;16133;49.486;12.176;2023-05-08T07:08:26;17.20;;;7.93;;
29044;SDS011;16133;49.486;12.176;2023-05-08T07:10:54;11.43;;;7.00;;
29044;SDS011;16133;49.486;12.176;2023-05-08T07:13:19;9.55;;;6.45;;
29044;SDS011;16133;49.486;12.176;2023-05-08T07:15:46;9.45;;;6.65;;
29044;SDS011;16133;49.486;12.176;2023-05-08T07:18:11;9.23;;;6.40;;
29044;SDS011;16133;49.486;12.176;2023-05-08T07:20:36;10.45;;;6.72;;
29044;SDS011;16133;49.486;12.176;2023-05-08T07:23:02;10.20;;;6.38;;
29044;SDS011;16133;49.486;12.176;2023-05-08T07:25:27;11.25;;;6.55;;
29044;SDS011;16133;49.486;12.176;2023-05-08T07:27:53;10.68;;;7.13;;
29044;SDS011;16133;49.486;12.176;2023-05-08T07:30:18;9.40;;;6.70;;
29044;SDS011;16133;49.486;12.176;2023-05-08T07:32:44;10.73;;;6.05;;
29044;SDS011;16133;49.486;12.176;2023-05-08T07:35:09;9.75;;;6.13;;
29044;SDS011;16133;49.486;12.176;2023-05-08T07:37:36;8.40;;;5.25;;
29044;SDS011;16133;49.486;12.176;2023-05-08T07:40:02;11.98;;;6.78;;
29044;SDS011;16133;49.486;12.176;2023-05-08T07:42:28;7.20;;;5.45;;
29044;SDS011;16133;49.486;12.176;2023-05-08T07:44:53;8.98;;;6.22;;
29044;SDS011;16133;49.486;12.176;2023-05-08T07:47:19;6.82;;;5.25;;
29044;SDS011;16133;49.486;12.176;2023-05-08T07:49:44;9.35;;;6.55;;
29044;SDS011;16133;49.486;12.176;2023-05-08T07:52:10;9.23;;;6.57;;
29044;SDS011;16133;49.486;12.176;2023-05-08T07:54:35;9.50;;;6.45;;
29044;SDS011;16133;49.486;12.176;2023-05-08T07:57:00;8.68;;;6.20;;
29044;SDS011;16133;49.486;12.176;2023-05-08T07:59:26;7.78;;;6.13;;
29044;SDS011;16133;49.486;12.176;2023-05-08T08:01:51;9.30;;;5.25;;
29044;SDS011;16133;49.486;12.176;2023-05-08T08:04:17;9.65;;;6.18;;
29044;SDS011;16133;49.486;12.176;2023-05-08T08:06:42;7.47;;;5.25;;
29044;SDS011;16133;49.486;12.176;2023-05-08T08:09:08;11.30;;;6.45;;
29044;SDS011;16133;49.486;12.176;2023-05-08T08:11:33;9.18;;;6.53;;
29044;SDS011;16133;49.486;12.176;2023-05-08T08:13:58;9.23;;;6.50;;
29044;SDS011;16133;49.486;12.176;2023-05-08T08:16:24;10.13;;;6.47;;
29044;SDS011;16133;49.486;12.176;2023-05-08T08:18:50;9.57;;;6.68;;
29044;SDS011;16133;49.486;12.176;2023-05-08T08:21:16;7.50;;;5.55;;
29044;SDS011;16133;49.486;12.176;2023-05-08T08:23:42;13.38;;;6.63;;
29044;SDS011;16133;49.486;12.176;2023-05-08T08:26:08;10.25;;;6.07;;
29044;SDS011;16133;49.486;12.176;2023-05-08T08:28:33;11.02;;;7.40;;
29044;SDS011;16133;49.486;12.176;2023-05-08T08:30:58;9.20;;;6.72;;
29044;SDS011;16133;49.486;12.176;2023-05-08T08:33:25;8.70;;;6.22;;
29044;SDS011;16133;49.486;12.176;2023-05-08T08:35:52;7.55;;;5.65;;
29044;SDS011;16133;49.486;12.176;2023-05-08T08:38:17;8.32;;;5.95;;
29044;SDS011;16133;49.486;12.176;2023-05-08T08:40:43;11.52;;;6.25;;
29044;SDS011;16133;49.486;12.176;2023-05-08T08:43:08;9.77;;;6.80;;
29044;SDS011;16133;49.486;12.176;2023-05-08T08:45:35;9.23;;;6.30;;
29044;SDS011;16133;49.486;12.176;2023-05-08T08:48:01;7.18;;;5.22;;
29044;SDS011;16133;49.486;12.176;2023-05-08T08:50:29;8.75;;;6.07;;
29044;SDS011;16133;49.486;12.176;2023-05-08T08:53:05;7.22;;;5.43;;
29044;SDS011;16133;49.486;12.176;2023-05-08T08:55:35;6.85;;;5.38;;
29044;SDS011;16133;49.486;12.176;2023-05-08T09:00:42;11.90;;;6.00;;
29044;SDS011;16133;49.486;12.176;2023-05-08T09:03:07;7.32;;;5.43;;
29044;SDS011;16133;49.486;12.176;2023-05-08T09:05:34;6.28;;;5.00;;
29044;SDS011;16133;49.486;12.176;2023-05-08T09:08:00;8.90;;;6.18;;
29044;SDS011;16133;49.486;12.176;2023-05-08T09:10:26;6.95;;;5.95;;
29044;SDS011;16133;49.486;12.176;2023-05-08T09:12:52;7.43;;;5.68;;
29044;SDS011;16133;49.486;12.176;2023-05-08T09:15:17;6.88;;;5.60;;
29044;SDS011;16133;49.486;12.176;2023-05-08T09:17:43;7.95;;;5.70;;
29044;SDS011;16133;49.486;12.176;2023-05-08T09:20:08;7.30;;;5.65;;
29044;SDS011;16133;49.486;12.176;2023-05-08T09:22:35;7.60;;;5.40;;
29044;SDS011;16133;49.486;12.176;2023-05-08T09:25:01;11.57;;;5.20;;
29044;SDS011;16133;49.486;12.176;2023-05-08T09:27:29;10.05;;;5.78;;
29044;SDS011;16133;49.486;12.176;2023-05-08T09:30:03;9.13;;;6.13;;
29044;SDS011;16133;49.486;12.176;2023-05-08T09:32:33;7.85;;;6.00;;
29044;SDS011;16133;49.486;12.176;2023-05-08T09:35:03;10.10;;;6.25;;
29044;SDS011;16133;49.486;12.176;2023-05-08T09:37:29;11.65;;;6.40;;
29044;SDS011;16133;49.486;12.176;2023-05-08T09:42:46;7.65;;;5.82;;
29044;SDS011;16133;49.486;12.176;2023-05-08T09:45:46;7.10;;;5.00;;
29044;SDS011;16133;49.486;12.176;2023-05-08T09:48:05;8.73;;;5.50;;
29044;SDS011;16133;49.486;12.176;2023-05-08T09:50:31;9.70;;;4.90;;
29044;SDS011;16133;49.486;12.176;2023-05-08T09:52:57;6.75;;;5.10;;
29044;SDS011;16133;49.486;12.176;2023-05-08T09:55:23;6.20;;;4.97;;
29044;SDS011;16133;49.486;12.176;2023-05-08T09:57:58;7.97;;;5.55;;
29044;SDS011;16133;49.486;12.176;2023-05-08T10:00:25;5.50;;;4.70;;
29044;SDS011;16133;49.486;12.176;2023-05-08T10:02:59;7.10;;;4.95;;
29044;SDS011;16133;49.486;12.176;2023-05-08T10:05:32;7.30;;;5.40;;
29044;SDS011;16133;49.486;12.176;2023-05-08T10:08:18;7.18;;;5.88;;
29044;SDS011;16133;49.486;12.176;2023-05-08T10:10:45;6.57;;;5.28;;
29044;SDS011;16133;49.486;12.176;2023-05-08T10:13:11;8.13;;;5.28;;
29044;SDS011;16133;49.486;12.176;2023-05-08T10:15:38;6.07;;;4.95;;
29044;SDS011;16133;49.486;12.176;2023-05-08T10:18:06;9.63;;;5.47;;
29044;SDS011;16133;49.486;12.176;2023-05-08T10:20:39;6.70;;;4.43;;
29044;SDS011;16133;49.486;12.176;2023-05-08T10:23:06;7.97;;;5.18;;
29044;SDS011;16133;49.486;12.176;2023-05-08T10:25:35;5.32;;;4.40;;
29044;SDS011;16133;49.486;12.176;2023-05-08T10:28:17;7.28;;;4.72;;
29044;SDS011;16133;49.486;12.176;2023-05-08T10:30:52;7.00;;;5.00;;
29044;SDS011;16133;49.486;12.176;2023-05-08T10:33:24;7.07;;;5.07;;
29044;SDS011;16133;49.486;12.176;2023-05-08T10:35:55;6.22;;;4.60;;
29044;SDS011;16133;49.486;12.176;2023-05-08T10:38:21;6.78;;;4.80;;
29044;SDS011;16133;49.486;12.176;2023-05-08T10:40:48;8.18;;;5.45;;
29044;SDS011;16133;49.486;12.176;2023-05-08T10:43:17;7.57;;;4.95;;
29044;SDS011;16133;49.486;12.176;2023-05-08T10:45:43;7.22;;;5.15;;
29044;SDS011;16133;49.486;12.176;2023-05-08T10:48:19;8.63;;;4.82;;
29044;SDS011;16133;49.486;12.176;2023-05-08T10:51:11;7.47;;;5.18;;
29044;SDS011;16133;49.486;12.176;2023-05-08T10:53:51;6.50;;;5.38;;
29044;SDS011;16133;49.486;12.176;2023-05-08T10:56:27;9.95;;;5.60;;
29044;SDS011;16133;49.486;12.176;2023-05-08T10:58:56;7.60;;;5.82;;
29044;SDS011;16133;49.486;12.176;2023-05-08T11:01:23;6.40;;;4.80;;
29044;SDS011;16133;49.486;12.176;2023-05-08T11:03:49;10.35;;;5.50;;
29044;SDS011;16133;49.486;12.176;2023-05-08T11:06:15;6.15;;;5.10;;
29044;SDS011;16133;49.486;12.176;2023-05-08T11:08:48;8.27;;;5.30;;
29044;SDS011;16133;49.486;12.176;2023-05-08T11:19:18;5.60;;;4.65;;
29044;SDS011;16133;49.486;12.176;2023-05-08T11:24:39;5.60;;;4.45;;
29044;SDS011;16133;49.486;12.176;2023-05-08T11:27:11;7.30;;;4.43;;
29044;SDS011;16133;49.486;12.176;2023-05-08T11:29:36;5.45;;;4.40;;
29044;SDS011;16133;49.486;12.176;2023-05-08T11:32:02;6.22;;;4.78;;
29044;SDS011;16133;49.486;12.176;2023-05-08T11:34:43;6.95;;;4.82;;
29044;SDS011;16133;49.486;12.176;2023-05-08T11:39:42;6.10;;;4.70;;
29044;SDS011;16133;49.486;12.176;2023-05-08T11:45:24;6.30;;;4.53;;
29044;SDS011;16133;49.486;12.176;2023-05-08T11:47:43;7.68;;;4.50;;
29044;SDS011;16133;49.486;12.176;2023-05-08T11:50:10;4.78;;;4.00;;
29044;SDS011;16133;49.486;12.176;2023-05-08T11:52:37;8.60;;;5.13;;
29044;SDS011;16133;49.486;12.176;2023-05-08T11:55:04;6.18;;;4.53;;
29044;SDS011;16133;49.486;12.176;2023-05-08T11:57:31;7.30;;;5.13;;
29044;SDS011;16133;49.486;12.176;2023-05-08T11:59:57;6.63;;;5.30;;
29044;SDS011;16133;49.486;12.176;2023-05-08T12:05:04;5.25;;;4.38;;
29044;SDS011;16133;49.486;12.176;2023-05-08T12:07:45;7.00;;;4.50;;
29044;SDS011;16133;49.486;12.176;2023-05-08T12:10:12;5.57;;;4.30;;
29044;SDS011;16133;49.486;12.176;2023-05-08T12:12:39;5.78;;;4.20;;
29044;SDS011;16133;49.486;12.176;2023-05-08T12:15:06;6.03;;;4.60;;
29044;SDS011;16133;49.486;12.176;2023-05-08T12:17:32;5.57;;;4.20;;
29044;SDS011;16133;49.486;12.176;2023-05-08T12:20:08;7.72;;;4.47;;
29044;SDS011;16133;49.486;12.176;2023-05-08T12:22:48;8.52;;;4.90;;
29044;SDS011;16133;49.486;12.176;2023-05-08T12:25:16;4.97;;;3.58;;
29044;SDS011;16133;49.486;12.176;2023-05-08T12:27:42;5.13;;;4.03;;
29044;SDS011;16133;49.486;12.176;2023-05-08T12:30:08;4.22;;;3.83;;
29044;SDS011;16133;49.486;12.176;2023-05-08T12:32:36;4.88;;;3.97;;
29044;SDS011;16133;49.486;12.176;2023-05-08T12:35:03;5.28;;;4.20;;
29044;SDS011;16133;49.486;12.176;2023-05-08T12:37:30;5.13;;;3.83;;
29044;SDS011;16133;49.486;12.176;2023-05-08T12:39:55;6.72;;;4.40;;
29044;SDS011;16133;49.486;12.176;2023-05-08T12:42:21;3.97;;;3.22;;
29044;SDS011;16133;49.486;12.176;2023-05-08T12:44:50;4.75;;;3.30;;
29044;SDS011;16133;49.486;12.176;2023-05-08T12:47:19;6.88;;;4.95;;
29044;SDS011;16133;49.486;12.176;2023-05-08T12:49:44;4.63;;;3.80;;
29044;SDS011;16133;49.486;12.176;2023-05-08T12:52:13;5.13;;;3.60;;
29044;SDS011;16133;49.486;12.176;2023-05-08T12:54:41;4.18;;;3.75;;
29044;SDS011;16133;49.486;12.176;2023-05-08T12:57:11;4.43;;;3.47;;
29044;SDS011;16133;49.486;12.176;2023-05-08T12:59:38;3.92;;;3.53;;
29044;SDS011;16133;49.486;12.176;2023-05-08T13:02:04;5.43;;;4.22;;
29044;SDS011;16133;49.486;12.176;2023-05-08T13:04:36;4.25;;;3.70;;
29044;SDS011;16133;49.486;12.176;2023-05-08T13:07:02;4.95;;;3.92;;
29044;SDS011;16133;49.486;12.176;2023-05-08T13:09:28;4.55;;;3.78;;
29044;SDS011;16133;49.486;12.176;2023-05-08T13:11:53;4.80;;;4.10;;
29044;SDS011;16133;49.486;12.176;2023-05-08T13:14:18;6.90;;;3.75;;
29044;SDS011;16133;49.486;12.176;2023-05-08T13:16:44;4.18;;;3.22;;
29044;SDS011;16133;49.486;12.176;2023-05-08T13:19:11;4.82;;;3.85;;
29044;SDS011;16133;49.486;12.176;2023-05-08T13:21:38;4.78;;;3.67;;
29044;SDS011;16133;49.486;12.176;2023-05-08T13:24:04;4.78;;;3.50;;
29044;SDS011;16133;49.486;12.176;2023-05-08T13:26:30;4.72;;;3.67;;
29044;SDS011;16133;49.486;12.176;2023-05-08T13:28:55;4.57;;;3.58;;
29044;SDS011;16133;49.486;12.176;2023-05-08T13:31:20;4.13;;;3.55;;
29044;SDS011;16133;49.486;12.176;2023-05-08T13:33:46;3.88;;;3.35;;
29044;SDS011;16133;49.486;12.176;2023-05-08T13:36:11;3.88;;;3.30;;
29044;SDS011;16133;49.486;12.176;2023-05-08T13:38:36;5.50;;;4.32;;
29044;SDS011;16133;49.486;12.176;2023-05-08T13:41:02;5.22;;;3.95;;
29044;SDS011;16133;49.486;12.176;2023-05-08T13:43:27;4.97;;;4.18;;
29044;SDS011;16133;49.486;12.176;2023-05-08T13:45:53;4.90;;;3.53;;
29044;SDS011;16133;49.486;12.176;2023-05-08T13:48:18;5.00;;;3.63;;
29044;SDS011;16133;49.486;12.176;2023-05-08T13:50:43;6.10;;;4.00;;
29044;SDS011;16133;49.486;12.176;2023-05-08T13:53:09;4.57;;;3.42;;
29044;SDS011;16133;49.486;12.176;2023-05-08T13:55:35;4.22;;;3.08;;
29044;SDS011;16133;49.486;12.176;2023-05-08T13:58:00;7.63;;;3.97;;
29044;SDS011;16133;49.486;12.176;2023-05-08T14:00:26;4.35;;;3.50;;
29044;SDS011;16133;49.486;12.176;2023-05-08T14:02:52;4.03;;;3.63;;
29044;SDS011;16133;49.486;12.176;2023-05-08T14:05:17;6.53;;;4.00;;
29044;SDS011;16133;49.486;12.176;2023-05-08T14:07:42;7.75;;;3.53;;
29044;SDS011;16133;49.486;12.176;2023-05-08T14:10:09;3.65;;;3.13;;
29044;SDS011;16133;49.486;12.176;2023-05-08T14:12:34;3.47;;;3.05;;
29044;SDS011;16133;49.486;12.176;2023-05-08T14:15:01;3.80;;;2.92;;
29044;SDS011;16133;49.486;12.176;2023-05-08T14:17:27;4.03;;;3.47;;
29044;SDS011;16133;49.486;12.176;2023-05-08T14:19:52;3.92;;;3.08;;
29044;SDS011;16133;49.486;12.176;2023-05-08T14:22:18;3.65;;;3.10;;
29044;SDS011;16133;49.486;12.176;2023-05-08T14:24:43;3.70;;;3.20;;
29044;SDS011;16133;49.486;12.176;2023-05-08T14:27:09;5.80;;;3.30;;
29044;SDS011;16133;49.486;12.176;2023-05-08T14:29:34;4.60;;;3.40;;
29044;SDS011;16133;49.486;12.176;2023-05-08T14:32:00;4.47;;;3.33;;
29044;SDS011;16133;49.486;12.176;2023-05-08T14:34:26;4.60;;;3.78;;
29044;SDS011;16133;49.486;12.176;2023-05-08T14:36:51;3.80;;;3.40;;
29044;SDS011;16133;49.486;12.176;2023-05-08T14:39:18;4.20;;;3.40;;
29044;SDS011;16133;49.486;12.176;2023-05-08T14:41:43;3.83;;;2.97;;
29044;SDS011;16133;49.486;12.176;2023-05-08T14:44:08;3.88;;;3.03;;
29044;SDS011;16133;49.486;12.176;2023-05-08T14:46:34;5.22;;;3.03;;
29044;SDS011;16133;49.486;12.176;2023-05-08T14:48:59;3.35;;;3.03;;
29044;SDS011;16133;49.486;12.176;2023-05-08T14:51:24;3.22;;;2.58;;
29044;SDS011;16133;49.486;12.176;2023-05-08T14:53:50;7.15;;;3.15;;
29044;SDS011;16133;49.486;12.176;2023-05-08T14:56:16;3.25;;;2.20;;
29044;SDS011;16133;49.486;12.176;2023-05-08T14:58:42;2.80;;;2.40;;
29044;SDS011;16133;49.486;12.176;2023-05-08T15:01:07;2.40;;;2.20;;
29044;SDS011;16133;49.486;12.176;2023-05-08T15:03:32;2.78;;;1.88;;
29044;SDS011;16133;49.486;12.176;2023-05-08T15:05:58;2.17;;;1.98;;
29044;SDS011;16133;49.486;12.176;2023-05-08T15:08:23;2.40;;;2.15;;
29044;SDS011;16133;49.486;12.176;2023-05-08T15:10:49;2.97;;;2.40;;
29044;SDS011;16133;49.486;12.176;2023-05-08T15:13:14;3.13;;;2.80;;
29044;SDS011;16133;49.486;12.176;2023-05-08T15:15:39;3.17;;;2.35;;
29044;SDS011;16133;49.486;12.176;2023-05-08T15:18:05;2.70;;;2.33;;
29044;SDS011;16133;49.486;12.176;2023-05-08T15:20:30;3.63;;;2.58;;
29044;SDS011;16133;49.486;12.176;2023-05-08T15:22:55;3.75;;;2.88;;
29044;SDS011;16133;49.486;12.176;2023-05-08T15:25:21;3.42;;;2.30;;